VTK601 UHHH-UHMM
Flight info
| Callsign | VTK601 |
|---|---|
| Flight time | 2h 15m |
| Altitude | 31000 |
| Route | TOMSU4R TOMSU N222 NA L160 BANOT BANOT5K |
| Aircraft | MD88/M-SDFGIRWY/S |
Departure
| Time | 2026-04-29 05:03 |
|---|---|
| Airport | Khabarovsk Novy Airport (UHHH) |
Arrival
| Time | 2026-04-29 07:19 |
|---|---|
| Airport | Sokol Airport (UHMM) |
| Time | Latitude | Longitude | Altitude | Speed | Heading |
|---|---|---|---|---|---|
| 2026-04-29 04:48 | 48.52847 | 135.17751 | 244 ft | 0 kts | 312° |
| 2026-04-29 04:56 | 48.52855 | 135.17739 | 244 ft | 2 kts | 313° |
| 2026-04-29 04:57 | 48.52875 | 135.17713 | 244 ft | 7 kts | 332° |
| 2026-04-29 04:57 | 48.52916 | 135.17739 | 244 ft | 7 kts | 58° |
| 2026-04-29 04:57 | 48.52910 | 135.17819 | 245 ft | 9 kts | 119° |
| 2026-04-29 04:57 | 48.52867 | 135.17902 | 245 ft | 11 kts | 130° |
| 2026-04-29 04:58 | 48.52812 | 135.17997 | 245 ft | 13 kts | 131° |
| 2026-04-29 04:58 | 48.52748 | 135.18104 | 245 ft | 14 kts | 131° |
| 2026-04-29 04:58 | 48.52679 | 135.18223 | 245 ft | 16 kts | 127° |
| 2026-04-29 04:58 | 48.52674 | 135.18380 | 244 ft | 17 kts | 50° |
| 2026-04-29 04:59 | 48.52760 | 135.18501 | 247 ft | 17 kts | 41° |
| 2026-04-29 04:59 | 48.52848 | 135.18621 | 248 ft | 18 kts | 43° |
| 2026-04-29 04:59 | 48.52941 | 135.18749 | 249 ft | 18 kts | 43° |
| 2026-04-29 04:59 | 48.53039 | 135.18883 | 249 ft | 20 kts | 42° |
| 2026-04-29 05:00 | 48.53141 | 135.19022 | 252 ft | 20 kts | 42° |
| 2026-04-29 05:00 | 48.53248 | 135.19168 | 251 ft | 21 kts | 42° |
| 2026-04-29 05:00 | 48.53362 | 135.19323 | 250 ft | 23 kts | 42° |
| 2026-04-29 05:00 | 48.53486 | 135.19493 | 248 ft | 25 kts | 42° |
| 2026-04-29 05:01 | 48.53624 | 135.19681 | 243 ft | 28 kts | 42° |
| 2026-04-29 05:01 | 48.53767 | 135.19876 | 238 ft | 27 kts | 42° |
| 2026-04-29 05:01 | 48.53880 | 135.20037 | 236 ft | 16 kts | 36° |
| 2026-04-29 05:01 | 48.53957 | 135.20067 | 237 ft | 9 kts | 13° |
| 2026-04-29 05:02 | 48.53968 | 135.20124 | 236 ft | 5 kts | 137° |
| 2026-04-29 05:02 | 48.53944 | 135.20119 | 239 ft | 3 kts | 222° |
| 2026-04-29 05:02 | 48.53922 | 135.20089 | 240 ft | 14 kts | 222° |
| 2026-04-29 05:02 | 48.53732 | 135.19828 | 239 ft | 62 kts | 222° |
| 2026-04-29 05:03 | 48.53272 | 135.19199 | 251 ft | 116 kts | 222° |
| 2026-04-29 05:03 | 48.52546 | 135.18216 | 242 ft | 164 kts | 221° |
| 2026-04-29 05:03 | 48.51619 | 135.16973 | 519 ft | 187 kts | 221° |
| 2026-04-29 05:03 | 48.50772 | 135.15856 | 1450 ft | 177 kts | 221° |
| 2026-04-29 05:04 | 48.49816 | 135.14591 | 1729 ft | 196 kts | 222° |
| 2026-04-29 05:04 | 48.48657 | 135.13013 | 1170 ft | 251 kts | 223° |
| 2026-04-29 05:04 | 48.47397 | 135.11274 | 2414 ft | 225 kts | 223° |
| 2026-04-29 05:04 | 48.46267 | 135.09701 | 3660 ft | 224 kts | 223° |
| 2026-04-29 05:05 | 48.45090 | 135.08075 | 4181 ft | 232 kts | 223° |
| 2026-04-29 05:05 | 48.43889 | 135.06416 | 4767 ft | 242 kts | 223° |
| 2026-04-29 05:05 | 48.42724 | 135.04509 | 5345 ft | 253 kts | 237° |
| 2026-04-29 05:05 | 48.42013 | 135.02098 | 6072 ft | 255 kts | 261° |
| 2026-04-29 05:06 | 48.42153 | 134.99453 | 6809 ft | 259 kts | 287° |
| 2026-04-29 05:06 | 48.42952 | 134.97002 | 7469 ft | 265 kts | 303° |
| 2026-04-29 05:06 | 48.44215 | 134.94951 | 8047 ft | 272 kts | 322° |
| 2026-04-29 05:06 | 48.45932 | 134.93748 | 8697 ft | 277 kts | 350° |
| 2026-04-29 05:07 | 48.47868 | 134.93740 | 9380 ft | 280 kts | 4° |
| 2026-04-29 05:07 | 48.49820 | 134.94029 | 9864 ft | 286 kts | 3° |
| 2026-04-29 05:07 | 48.51839 | 134.94143 | 10010 ft | 293 kts | 358° |
| 2026-04-29 05:07 | 48.53910 | 134.94013 | 10159 ft | 304 kts | 355° |
| 2026-04-29 05:08 | 48.56086 | 134.93809 | 10325 ft | 321 kts | 354° |
| 2026-04-29 05:08 | 48.58374 | 134.93473 | 10500 ft | 339 kts | 352° |
| 2026-04-29 05:08 | 48.60753 | 134.93004 | 10653 ft | 351 kts | 350° |
| 2026-04-29 05:08 | 48.63206 | 134.92449 | 10933 ft | 360 kts | 350° |
| 2026-04-29 05:09 | 48.65705 | 134.91875 | 11516 ft | 365 kts | 349° |
| 2026-04-29 05:09 | 48.68236 | 134.91572 | 12185 ft | 367 kts | 4° |
| 2026-04-29 05:09 | 48.70714 | 134.92559 | 12659 ft | 376 kts | 26° |
| 2026-04-29 05:09 | 48.72819 | 134.94927 | 13261 ft | 381 kts | 48° |
| 2026-04-29 05:10 | 48.74258 | 134.98288 | 13847 ft | 382 kts | 66° |
| 2026-04-29 05:10 | 48.75271 | 135.02043 | 14358 ft | 387 kts | 69° |
| 2026-04-29 05:10 | 48.76236 | 135.05868 | 14891 ft | 391 kts | 69° |
| 2026-04-29 05:10 | 48.77187 | 135.09737 | 15450 ft | 393 kts | 70° |
| 2026-04-29 05:11 | 48.78170 | 135.13629 | 15933 ft | 398 kts | 69° |
| 2026-04-29 05:11 | 48.79189 | 135.17543 | 16561 ft | 400 kts | 68° |
| 2026-04-29 05:11 | 48.80251 | 135.21446 | 17222 ft | 401 kts | 67° |
| 2026-04-29 05:11 | 48.81329 | 135.25313 | 17738 ft | 406 kts | 67° |
| 2026-04-29 05:12 | 48.82440 | 135.29272 | 18221 ft | 410 kts | 67° |
| 2026-04-29 05:12 | 48.83568 | 135.33264 | 18788 ft | 413 kts | 66° |
| 2026-04-29 05:12 | 48.84702 | 135.37266 | 19390 ft | 414 kts | 66° |
| 2026-04-29 05:12 | 48.85836 | 135.41279 | 19808 ft | 414 kts | 66° |
| 2026-04-29 05:13 | 48.86952 | 135.45336 | 20043 ft | 418 kts | 68° |
| 2026-04-29 05:13 | 48.88069 | 135.49444 | 20345 ft | 423 kts | 67° |
| 2026-04-29 05:13 | 48.89188 | 135.53586 | 20831 ft | 425 kts | 67° |
| 2026-04-29 05:13 | 48.90311 | 135.57753 | 21384 ft | 427 kts | 67° |
| 2026-04-29 05:14 | 48.91447 | 135.61931 | 21828 ft | 429 kts | 66° |
| 2026-04-29 05:14 | 48.92600 | 135.66132 | 22162 ft | 433 kts | 67° |
| 2026-04-29 05:14 | 48.93757 | 135.70378 | 22521 ft | 436 kts | 67° |
| 2026-04-29 05:14 | 48.94920 | 135.74647 | 22888 ft | 438 kts | 67° |
| 2026-04-29 05:15 | 48.96103 | 135.78942 | 23244 ft | 442 kts | 66° |
| 2026-04-29 05:15 | 48.97303 | 135.83256 | 23589 ft | 444 kts | 63° |
| 2026-04-29 05:15 | 48.99017 | 135.87164 | 23790 ft | 447 kts | 47° |
| 2026-04-29 05:15 | 49.01147 | 135.90612 | 24269 ft | 446 kts | 43° |
| 2026-04-29 05:16 | 49.03355 | 135.93925 | 24805 ft | 445 kts | 42° |
| 2026-04-29 05:16 | 49.05572 | 135.97221 | 25261 ft | 446 kts | 42° |
| 2026-04-29 05:16 | 49.07798 | 136.00524 | 25646 ft | 447 kts | 41° |
| 2026-04-29 05:16 | 49.10030 | 136.03846 | 26021 ft | 449 kts | 42° |
| 2026-04-29 05:17 | 49.12251 | 136.07179 | 26507 ft | 447 kts | 42° |
| 2026-04-29 05:17 | 49.14419 | 136.10469 | 27126 ft | 443 kts | 42° |
| 2026-04-29 05:17 | 49.16592 | 136.13789 | 27707 ft | 440 kts | 42° |
| 2026-04-29 05:17 | 49.18746 | 136.17091 | 28243 ft | 438 kts | 42° |
| 2026-04-29 05:18 | 49.20914 | 136.20430 | 28767 ft | 435 kts | 41° |
| 2026-04-29 05:18 | 49.23041 | 136.23702 | 29236 ft | 433 kts | 41° |
| 2026-04-29 05:18 | 49.25162 | 136.26956 | 29691 ft | 431 kts | 41° |
| 2026-04-29 05:18 | 49.27271 | 136.30193 | 30098 ft | 428 kts | 41° |
| 2026-04-29 05:19 | 49.29365 | 136.33422 | 30434 ft | 427 kts | 41° |
| 2026-04-29 05:19 | 49.31454 | 136.36666 | 30636 ft | 428 kts | 41° |
| 2026-04-29 05:19 | 49.33554 | 136.39930 | 30728 ft | 433 kts | 41° |
| 2026-04-29 05:20 | 49.37799 | 136.46502 | 30791 ft | 432 kts | 41° |
| 2026-04-29 05:20 | 49.41307 | 136.51914 | 30806 ft | 429 kts | 41° |
| 2026-04-29 05:21 | 49.45604 | 136.58169 | 30815 ft | 422 kts | 32° |
| 2026-04-29 05:21 | 49.50485 | 136.63181 | 30833 ft | 422 kts | 29° |
| 2026-04-29 05:22 | 49.55475 | 136.68087 | 30821 ft | 428 kts | 30° |
| 2026-04-29 05:22 | 49.60448 | 136.73098 | 30812 ft | 425 kts | 30° |
| 2026-04-29 05:23 | 49.65331 | 136.78115 | 30810 ft | 419 kts | 30° |
| 2026-04-29 05:23 | 49.70168 | 136.83111 | 30818 ft | 419 kts | 30° |
| 2026-04-29 05:24 | 49.75053 | 136.88152 | 30826 ft | 425 kts | 30° |
| 2026-04-29 05:24 | 49.79980 | 136.93233 | 30821 ft | 426 kts | 31° |
| 2026-04-29 05:25 | 49.84886 | 136.98340 | 30822 ft | 424 kts | 31° |
| 2026-04-29 05:25 | 49.89733 | 137.03415 | 30823 ft | 422 kts | 31° |
| 2026-04-29 05:26 | 49.94582 | 137.08487 | 30833 ft | 425 kts | 31° |
| 2026-04-29 05:26 | 49.99517 | 137.13637 | 30826 ft | 428 kts | 31° |
| 2026-04-29 05:27 | 50.04459 | 137.18802 | 30823 ft | 427 kts | 31° |
| 2026-04-29 05:27 | 50.11846 | 137.26587 | 30827 ft | 425 kts | 31° |
| 2026-04-29 05:28 | 50.16728 | 137.31854 | 30828 ft | 428 kts | 31° |
| 2026-04-29 05:28 | 50.21618 | 137.37126 | 30833 ft | 426 kts | 31° |
| 2026-04-29 05:29 | 50.26488 | 137.42351 | 30838 ft | 423 kts | 31° |
| 2026-04-29 05:29 | 50.31350 | 137.47568 | 30834 ft | 424 kts | 31° |
| 2026-04-29 05:30 | 50.36189 | 137.52772 | 30849 ft | 426 kts | 31° |
| 2026-04-29 05:30 | 50.41025 | 137.58178 | 30843 ft | 428 kts | 34° |
| 2026-04-29 05:31 | 50.45724 | 137.63924 | 30842 ft | 429 kts | 35° |
| 2026-04-29 05:31 | 50.50420 | 137.69701 | 30843 ft | 429 kts | 34° |
| 2026-04-29 05:32 | 50.55144 | 137.75439 | 30860 ft | 429 kts | 34° |
| 2026-04-29 05:32 | 50.59888 | 137.81166 | 30856 ft | 430 kts | 34° |
| 2026-04-29 05:33 | 50.64635 | 137.86926 | 30857 ft | 431 kts | 34° |
| 2026-04-29 05:33 | 50.69367 | 137.92694 | 30857 ft | 429 kts | 34° |
| 2026-04-29 05:34 | 50.74082 | 137.98461 | 30857 ft | 428 kts | 35° |
| 2026-04-29 05:34 | 50.78793 | 138.04258 | 30869 ft | 431 kts | 35° |
| 2026-04-29 05:35 | 50.83525 | 138.10078 | 30865 ft | 430 kts | 35° |
| 2026-04-29 05:35 | 50.88230 | 138.15867 | 30866 ft | 427 kts | 35° |
| 2026-04-29 05:36 | 50.92950 | 138.21568 | 30873 ft | 426 kts | 32° |
| 2026-04-29 05:36 | 50.97904 | 138.26736 | 30879 ft | 427 kts | 29° |
| 2026-04-29 05:37 | 51.02938 | 138.31797 | 30876 ft | 430 kts | 30° |
| 2026-04-29 05:37 | 51.07967 | 138.36937 | 30875 ft | 429 kts | 30° |
| 2026-04-29 05:38 | 51.12963 | 138.42115 | 30878 ft | 428 kts | 30° |
| 2026-04-29 05:38 | 51.17933 | 138.47299 | 30879 ft | 427 kts | 30° |
| 2026-04-29 05:39 | 51.22919 | 138.52504 | 30887 ft | 429 kts | 30° |
| 2026-04-29 05:39 | 51.27918 | 138.57730 | 30883 ft | 430 kts | 30° |
| 2026-04-29 05:40 | 51.32917 | 138.63003 | 30880 ft | 430 kts | 31° |
| 2026-04-29 05:40 | 51.37904 | 138.68271 | 30885 ft | 429 kts | 30° |
| 2026-04-29 05:41 | 51.42878 | 138.73519 | 30883 ft | 427 kts | 30° |
| 2026-04-29 05:41 | 51.47830 | 138.78748 | 30891 ft | 425 kts | 30° |
| 2026-04-29 05:42 | 51.52763 | 138.83971 | 30893 ft | 425 kts | 30° |
| 2026-04-29 05:42 | 51.57709 | 138.89217 | 30898 ft | 426 kts | 31° |
| 2026-04-29 05:43 | 51.62625 | 138.94452 | 30896 ft | 427 kts | 31° |
| 2026-04-29 05:43 | 51.67571 | 138.99760 | 30909 ft | 428 kts | 31° |
| 2026-04-29 05:44 | 51.72526 | 139.05093 | 30909 ft | 428 kts | 31° |
| 2026-04-29 05:44 | 51.77488 | 139.10422 | 30909 ft | 429 kts | 31° |
| 2026-04-29 05:45 | 51.82453 | 139.15762 | 30917 ft | 429 kts | 31° |
| 2026-04-29 05:45 | 51.87408 | 139.21103 | 30916 ft | 427 kts | 31° |
| 2026-04-29 05:46 | 51.92362 | 139.26458 | 30919 ft | 429 kts | 31° |
| 2026-04-29 05:46 | 51.97324 | 139.31837 | 30918 ft | 429 kts | 31° |
| 2026-04-29 05:47 | 52.02282 | 139.37263 | 30923 ft | 430 kts | 31° |
| 2026-04-29 05:47 | 52.07244 | 139.42702 | 30919 ft | 430 kts | 31° |
| 2026-04-29 05:48 | 52.12216 | 139.48146 | 30927 ft | 431 kts | 31° |
| 2026-04-29 05:48 | 52.17196 | 139.53601 | 30932 ft | 432 kts | 31° |
| 2026-04-29 05:49 | 52.22181 | 139.59076 | 30930 ft | 432 kts | 31° |
| 2026-04-29 05:49 | 52.27159 | 139.64560 | 30929 ft | 431 kts | 31° |
| 2026-04-29 05:50 | 52.32117 | 139.70041 | 30933 ft | 430 kts | 31° |
| 2026-04-29 05:50 | 52.37064 | 139.75582 | 30926 ft | 432 kts | 32° |
| 2026-04-29 05:51 | 52.42031 | 139.81135 | 30921 ft | 433 kts | 31° |
| 2026-04-29 05:51 | 52.47017 | 139.86683 | 30921 ft | 433 kts | 31° |
| 2026-04-29 05:52 | 52.51975 | 139.92202 | 30922 ft | 432 kts | 31° |
| 2026-04-29 05:52 | 52.56944 | 139.97745 | 30927 ft | 430 kts | 31° |
| 2026-04-29 05:53 | 52.61886 | 140.03267 | 30920 ft | 429 kts | 31° |
| 2026-04-29 05:53 | 52.66737 | 140.09005 | 30913 ft | 430 kts | 34° |
| 2026-04-29 05:54 | 52.71499 | 140.14990 | 30910 ft | 431 kts | 34° |
| 2026-04-29 05:54 | 52.76301 | 140.20931 | 30924 ft | 432 kts | 34° |
| 2026-04-29 05:55 | 52.81135 | 140.26829 | 30914 ft | 432 kts | 33° |
| 2026-04-29 05:55 | 52.85985 | 140.32713 | 30914 ft | 433 kts | 33° |
| 2026-04-29 05:56 | 52.90835 | 140.38622 | 30912 ft | 433 kts | 34° |
| 2026-04-29 05:56 | 52.95642 | 140.44527 | 30912 ft | 433 kts | 33° |
| 2026-04-29 05:57 | 53.00512 | 140.50541 | 30924 ft | 434 kts | 34° |
| 2026-04-29 05:57 | 53.05311 | 140.56510 | 30918 ft | 434 kts | 34° |
| 2026-04-29 05:58 | 53.10150 | 140.62520 | 30921 ft | 434 kts | 34° |
| 2026-04-29 05:58 | 53.14995 | 140.68529 | 30919 ft | 434 kts | 33° |
| 2026-04-29 05:59 | 53.20009 | 140.73992 | 30923 ft | 428 kts | 28° |
| 2026-04-29 05:59 | 53.25120 | 140.79085 | 30926 ft | 429 kts | 28° |
| 2026-04-29 06:00 | 53.30238 | 140.84257 | 30929 ft | 430 kts | 28° |
| 2026-04-29 06:00 | 53.35340 | 140.89530 | 30935 ft | 431 kts | 29° |
| 2026-04-29 06:01 | 53.40448 | 140.94824 | 30934 ft | 432 kts | 29° |
| 2026-04-29 06:01 | 53.45513 | 141.00089 | 30957 ft | 430 kts | 29° |
| 2026-04-29 06:02 | 53.50595 | 141.05392 | 30943 ft | 430 kts | 29° |
| 2026-04-29 06:02 | 53.55691 | 141.10719 | 30940 ft | 432 kts | 29° |
| 2026-04-29 06:03 | 53.60793 | 141.16069 | 30936 ft | 432 kts | 29° |
| 2026-04-29 06:03 | 53.65904 | 141.21453 | 30938 ft | 433 kts | 29° |
| 2026-04-29 06:04 | 53.70993 | 141.26847 | 30936 ft | 430 kts | 30° |
| 2026-04-29 06:04 | 53.75178 | 141.31308 | 30943 ft | 427 kts | 30° |
| 2026-04-29 06:05 | 53.80203 | 141.36659 | 30945 ft | 427 kts | 30° |
| 2026-04-29 06:05 | 53.85242 | 141.42016 | 30947 ft | 428 kts | 30° |
| 2026-04-29 06:06 | 53.91108 | 141.48278 | 30943 ft | 429 kts | 30° |
| 2026-04-29 06:06 | 53.95348 | 141.52809 | 30959 ft | 430 kts | 30° |
| 2026-04-29 06:07 | 54.00382 | 141.58202 | 30954 ft | 431 kts | 30° |
| 2026-04-29 06:07 | 54.05447 | 141.63657 | 30951 ft | 431 kts | 30° |
| 2026-04-29 06:08 | 54.10505 | 141.69148 | 30952 ft | 431 kts | 30° |
| 2026-04-29 06:08 | 54.15549 | 141.74626 | 30955 ft | 429 kts | 30° |
| 2026-04-29 06:09 | 54.20586 | 141.80091 | 30958 ft | 429 kts | 30° |
| 2026-04-29 06:09 | 54.25626 | 141.85568 | 30961 ft | 429 kts | 30° |
| 2026-04-29 06:10 | 54.30642 | 141.91038 | 30958 ft | 426 kts | 30° |
| 2026-04-29 06:10 | 54.35646 | 141.96509 | 30964 ft | 427 kts | 30° |
| 2026-04-29 06:11 | 54.40621 | 142.01977 | 30973 ft | 428 kts | 30° |
| 2026-04-29 06:11 | 54.45631 | 142.07531 | 30965 ft | 429 kts | 30° |
| 2026-04-29 06:12 | 54.50652 | 142.13096 | 30963 ft | 430 kts | 30° |
| 2026-04-29 06:12 | 54.55680 | 142.18664 | 30966 ft | 430 kts | 30° |
| 2026-04-29 06:13 | 54.60715 | 142.24249 | 30969 ft | 431 kts | 30° |
| 2026-04-29 06:13 | 54.65749 | 142.29852 | 30965 ft | 430 kts | 30° |
| 2026-04-29 06:14 | 54.70769 | 142.35456 | 30971 ft | 429 kts | 30° |
| 2026-04-29 06:14 | 54.75784 | 142.41086 | 30972 ft | 430 kts | 30° |
| 2026-04-29 06:15 | 54.80793 | 142.46758 | 30971 ft | 430 kts | 30° |
| 2026-04-29 06:15 | 54.85801 | 142.52423 | 30976 ft | 430 kts | 30° |
| 2026-04-29 06:16 | 54.90748 | 142.58014 | 30975 ft | 430 kts | 30° |
| 2026-04-29 06:16 | 54.95761 | 142.63691 | 30979 ft | 430 kts | 30° |
| 2026-04-29 06:17 | 55.00778 | 142.69393 | 30976 ft | 431 kts | 30° |
| 2026-04-29 06:17 | 55.05796 | 142.75115 | 30977 ft | 431 kts | 30° |
| 2026-04-29 06:18 | 55.10817 | 142.80834 | 30976 ft | 431 kts | 30° |
| 2026-04-29 06:18 | 55.15845 | 142.86555 | 30980 ft | 431 kts | 30° |
| 2026-04-29 06:19 | 55.20865 | 142.92303 | 30984 ft | 432 kts | 31° |
| 2026-04-29 06:19 | 55.25841 | 142.98230 | 30981 ft | 433 kts | 32° |
| 2026-04-29 06:20 | 55.30769 | 143.04189 | 30981 ft | 433 kts | 32° |
| 2026-04-29 06:20 | 55.35751 | 143.10112 | 30979 ft | 433 kts | 31° |
| 2026-04-29 06:21 | 55.40743 | 143.15995 | 30979 ft | 431 kts | 31° |
| 2026-04-29 06:21 | 55.45726 | 143.21877 | 30983 ft | 431 kts | 31° |
| 2026-04-29 06:22 | 55.50711 | 143.27792 | 30981 ft | 432 kts | 31° |
| 2026-04-29 06:22 | 55.55694 | 143.33732 | 30980 ft | 432 kts | 31° |
| 2026-04-29 06:23 | 55.60669 | 143.39718 | 30981 ft | 433 kts | 32° |
| 2026-04-29 06:23 | 55.65643 | 143.45730 | 30980 ft | 433 kts | 32° |
| 2026-04-29 06:24 | 55.70597 | 143.51708 | 30984 ft | 434 kts | 32° |
| 2026-04-29 06:24 | 55.75585 | 143.57735 | 30981 ft | 434 kts | 32° |
| 2026-04-29 06:25 | 55.80576 | 143.63781 | 30979 ft | 434 kts | 32° |
| 2026-04-29 06:25 | 55.85561 | 143.69836 | 30982 ft | 433 kts | 32° |
| 2026-04-29 06:26 | 55.90515 | 143.75873 | 30980 ft | 430 kts | 32° |
| 2026-04-29 06:26 | 55.95432 | 143.81925 | 30985 ft | 430 kts | 32° |
| 2026-04-29 06:27 | 56.00365 | 143.88022 | 30980 ft | 431 kts | 32° |
| 2026-04-29 06:27 | 56.05273 | 143.94083 | 30979 ft | 432 kts | 32° |
| 2026-04-29 06:28 | 56.10219 | 144.00191 | 30979 ft | 432 kts | 32° |
| 2026-04-29 06:28 | 56.15165 | 144.06316 | 30979 ft | 432 kts | 32° |
| 2026-04-29 06:29 | 56.20112 | 144.12463 | 30980 ft | 433 kts | 32° |
| 2026-04-29 06:29 | 56.25066 | 144.18636 | 30980 ft | 433 kts | 32° |
| 2026-04-29 06:30 | 56.32467 | 144.27927 | 30982 ft | 432 kts | 34° |
| 2026-04-29 06:31 | 56.37311 | 144.34311 | 30980 ft | 431 kts | 34° |
| 2026-04-29 06:31 | 56.42160 | 144.40669 | 30991 ft | 431 kts | 34° |
| 2026-04-29 06:32 | 56.46993 | 144.46939 | 30980 ft | 429 kts | 34° |
| 2026-04-29 06:32 | 56.51839 | 144.53230 | 30974 ft | 428 kts | 34° |
| 2026-04-29 06:33 | 56.56677 | 144.59537 | 30978 ft | 429 kts | 34° |
| 2026-04-29 06:33 | 56.61531 | 144.65875 | 30974 ft | 430 kts | 34° |
| 2026-04-29 06:34 | 56.66364 | 144.72251 | 30981 ft | 430 kts | 34° |
| 2026-04-29 06:34 | 56.71201 | 144.78663 | 30976 ft | 430 kts | 34° |
| 2026-04-29 06:35 | 56.76010 | 144.85047 | 30972 ft | 431 kts | 34° |
| 2026-04-29 06:35 | 56.80830 | 144.91444 | 30971 ft | 431 kts | 34° |
| 2026-04-29 06:36 | 56.85677 | 144.97889 | 30967 ft | 431 kts | 34° |
| 2026-04-29 06:36 | 56.90526 | 145.04356 | 30968 ft | 431 kts | 34° |
| 2026-04-29 06:37 | 56.95363 | 145.10816 | 30967 ft | 430 kts | 35° |
| 2026-04-29 06:37 | 57.00177 | 145.17305 | 30960 ft | 429 kts | 36° |
| 2026-04-29 06:38 | 57.04969 | 145.23823 | 30966 ft | 428 kts | 36° |
| 2026-04-29 06:38 | 57.09722 | 145.30268 | 30964 ft | 427 kts | 35° |
| 2026-04-29 06:39 | 57.14514 | 145.36766 | 30961 ft | 428 kts | 35° |
| 2026-04-29 06:39 | 57.19314 | 145.43281 | 30966 ft | 429 kts | 36° |
| 2026-04-29 06:40 | 57.24120 | 145.49833 | 30961 ft | 430 kts | 36° |
| 2026-04-29 06:40 | 57.28927 | 145.56420 | 30961 ft | 430 kts | 36° |
| 2026-04-29 06:41 | 57.33721 | 145.63029 | 30955 ft | 429 kts | 36° |
| 2026-04-29 06:41 | 57.38458 | 145.69619 | 30955 ft | 428 kts | 36° |
| 2026-04-29 06:42 | 57.43220 | 145.76227 | 30955 ft | 428 kts | 36° |
| 2026-04-29 06:42 | 57.47997 | 145.82854 | 30953 ft | 429 kts | 37° |
| 2026-04-29 06:43 | 57.52776 | 145.89509 | 30950 ft | 429 kts | 37° |
| 2026-04-29 06:43 | 57.57557 | 145.96178 | 30949 ft | 430 kts | 37° |
| 2026-04-29 06:44 | 57.62343 | 146.02877 | 30947 ft | 430 kts | 37° |
| 2026-04-29 06:44 | 57.67103 | 146.09613 | 30944 ft | 428 kts | 37° |
| 2026-04-29 06:45 | 57.71846 | 146.16321 | 30944 ft | 427 kts | 37° |
| 2026-04-29 06:45 | 57.76576 | 146.23042 | 30944 ft | 427 kts | 38° |
| 2026-04-29 06:46 | 57.81276 | 146.29743 | 30937 ft | 428 kts | 37° |
| 2026-04-29 06:46 | 57.86025 | 146.36483 | 30938 ft | 428 kts | 37° |
| 2026-04-29 06:47 | 57.90775 | 146.43263 | 30937 ft | 429 kts | 38° |
| 2026-04-29 06:47 | 57.95522 | 146.50048 | 30936 ft | 428 kts | 38° |
| 2026-04-29 06:48 | 58.00227 | 146.56868 | 30934 ft | 425 kts | 39° |
| 2026-04-29 06:48 | 58.04910 | 146.63703 | 30930 ft | 426 kts | 38° |
| 2026-04-29 06:49 | 58.09612 | 146.70544 | 30932 ft | 427 kts | 38° |
| 2026-04-29 06:49 | 58.14329 | 146.77392 | 30916 ft | 427 kts | 39° |
| 2026-04-29 06:50 | 58.19022 | 146.84205 | 30916 ft | 423 kts | 39° |
| 2026-04-29 06:50 | 58.23668 | 146.91004 | 30924 ft | 422 kts | 39° |
| 2026-04-29 06:51 | 58.28324 | 146.97838 | 30927 ft | 424 kts | 39° |
| 2026-04-29 06:51 | 58.32977 | 147.04727 | 30920 ft | 424 kts | 40° |
| 2026-04-29 06:52 | 58.37605 | 147.11609 | 30920 ft | 425 kts | 40° |
| 2026-04-29 06:52 | 58.42252 | 147.18548 | 30917 ft | 424 kts | 40° |
| 2026-04-29 06:53 | 58.46893 | 147.25473 | 30922 ft | 423 kts | 40° |
| 2026-04-29 06:53 | 58.51515 | 147.32404 | 30922 ft | 421 kts | 40° |
| 2026-04-29 06:54 | 58.56142 | 147.39304 | 30916 ft | 422 kts | 40° |
| 2026-04-29 06:54 | 58.60741 | 147.46194 | 30919 ft | 423 kts | 40° |
| 2026-04-29 06:55 | 58.65378 | 147.53145 | 30920 ft | 423 kts | 40° |
| 2026-04-29 06:55 | 58.70029 | 147.60093 | 30919 ft | 423 kts | 40° |
| 2026-04-29 06:56 | 58.74659 | 147.67021 | 30905 ft | 419 kts | 41° |
| 2026-04-29 06:56 | 58.79191 | 147.74029 | 30910 ft | 416 kts | 43° |
| 2026-04-29 06:57 | 58.83615 | 147.81236 | 30910 ft | 417 kts | 43° |
| 2026-04-29 06:57 | 58.88127 | 147.88335 | 30911 ft | 419 kts | 41° |
| 2026-04-29 06:58 | 58.92698 | 147.95345 | 30899 ft | 419 kts | 41° |
| 2026-04-29 06:58 | 58.97255 | 148.02306 | 30905 ft | 415 kts | 42° |
| 2026-04-29 06:59 | 59.01728 | 148.09221 | 30908 ft | 413 kts | 42° |
| 2026-04-29 06:59 | 59.06222 | 148.16224 | 30903 ft | 415 kts | 43° |
| 2026-04-29 07:00 | 59.10708 | 148.23298 | 30904 ft | 415 kts | 43° |
| 2026-04-29 07:00 | 59.15027 | 148.30074 | 30902 ft | 416 kts | 42° |
| 2026-04-29 07:01 | 59.19554 | 148.37101 | 30895 ft | 415 kts | 43° |
| 2026-04-29 07:01 | 59.24033 | 148.44150 | 30896 ft | 412 kts | 43° |
| 2026-04-29 07:02 | 59.28474 | 148.51220 | 30866 ft | 412 kts | 43° |
| 2026-04-29 07:02 | 59.30694 | 148.54766 | 30736 ft | 415 kts | 43° |
| 2026-04-29 07:02 | 59.32955 | 148.58377 | 30209 ft | 420 kts | 44° |
| 2026-04-29 07:02 | 59.35210 | 148.61963 | 29596 ft | 414 kts | 44° |
| 2026-04-29 07:03 | 59.37425 | 148.65488 | 28955 ft | 407 kts | 44° |
| 2026-04-29 07:03 | 59.39601 | 148.68967 | 28326 ft | 401 kts | 44° |
| 2026-04-29 07:03 | 59.41738 | 148.72437 | 27696 ft | 396 kts | 44° |
| 2026-04-29 07:03 | 59.43839 | 148.75876 | 27068 ft | 391 kts | 44° |
| 2026-04-29 07:04 | 59.45913 | 148.79276 | 26484 ft | 385 kts | 44° |
| 2026-04-29 07:04 | 59.47962 | 148.82618 | 25909 ft | 380 kts | 44° |
| 2026-04-29 07:04 | 59.49990 | 148.85913 | 25326 ft | 376 kts | 44° |
| 2026-04-29 07:04 | 59.52002 | 148.89168 | 24751 ft | 373 kts | 44° |
| 2026-04-29 07:05 | 59.53325 | 148.91311 | 24372 ft | 370 kts | 43° |
| 2026-04-29 07:05 | 59.55307 | 148.94518 | 23783 ft | 368 kts | 43° |
| 2026-04-29 07:05 | 59.57276 | 148.97708 | 23187 ft | 365 kts | 43° |
| 2026-04-29 07:05 | 59.59230 | 149.00876 | 22531 ft | 361 kts | 43° |
| 2026-04-29 07:06 | 59.61156 | 149.04008 | 21934 ft | 357 kts | 43° |
| 2026-04-29 07:06 | 59.63066 | 149.07118 | 21354 ft | 353 kts | 43° |
| 2026-04-29 07:06 | 59.64951 | 149.10192 | 20788 ft | 349 kts | 42° |
| 2026-04-29 07:06 | 59.66812 | 149.13235 | 20231 ft | 345 kts | 43° |
| 2026-04-29 07:07 | 59.68369 | 149.16770 | 19652 ft | 339 kts | 60° |
| 2026-04-29 07:07 | 59.69501 | 149.20840 | 19055 ft | 338 kts | 64° |
| 2026-04-29 07:07 | 59.70558 | 149.24989 | 18453 ft | 336 kts | 64° |
| 2026-04-29 07:07 | 59.71602 | 149.29129 | 17793 ft | 335 kts | 64° |
| 2026-04-29 07:08 | 59.72644 | 149.33254 | 17140 ft | 334 kts | 64° |
| 2026-04-29 07:08 | 59.73691 | 149.37343 | 16510 ft | 332 kts | 64° |
| 2026-04-29 07:08 | 59.74743 | 149.41393 | 15915 ft | 329 kts | 63° |
| 2026-04-29 07:08 | 59.75800 | 149.45412 | 15327 ft | 328 kts | 63° |
| 2026-04-29 07:09 | 59.76861 | 149.49409 | 14728 ft | 328 kts | 63° |
| 2026-04-29 07:09 | 59.77928 | 149.53407 | 14141 ft | 327 kts | 63° |
| 2026-04-29 07:09 | 59.78995 | 149.57392 | 13547 ft | 326 kts | 63° |
| 2026-04-29 07:09 | 59.80057 | 149.61360 | 12909 ft | 324 kts | 63° |
| 2026-04-29 07:10 | 59.81110 | 149.65301 | 12298 ft | 322 kts | 63° |
| 2026-04-29 07:10 | 59.82154 | 149.69208 | 11705 ft | 319 kts | 63° |
| 2026-04-29 07:10 | 59.83173 | 149.73030 | 11138 ft | 315 kts | 63° |
| 2026-04-29 07:10 | 59.84211 | 149.76919 | 10563 ft | 313 kts | 63° |
| 2026-04-29 07:11 | 59.85206 | 149.80656 | 10313 ft | 295 kts | 63° |
| 2026-04-29 07:11 | 59.86125 | 149.84156 | 10124 ft | 278 kts | 63° |
| 2026-04-29 07:11 | 59.86987 | 149.87461 | 9870 ft | 264 kts | 63° |
| 2026-04-29 07:11 | 59.87832 | 149.90718 | 9052 ft | 275 kts | 63° |
| 2026-04-29 07:12 | 59.88705 | 149.94097 | 8371 ft | 272 kts | 63° |
| 2026-04-29 07:12 | 59.89564 | 149.97424 | 7792 ft | 267 kts | 62° |
| 2026-04-29 07:12 | 59.90411 | 150.00674 | 7285 ft | 262 kts | 62° |
| 2026-04-29 07:12 | 59.91229 | 150.03814 | 6837 ft | 256 kts | 62° |
| 2026-04-29 07:13 | 59.92040 | 150.06922 | 6430 ft | 250 kts | 62° |
| 2026-04-29 07:13 | 59.92588 | 150.10173 | 6029 ft | 250 kts | 87° |
| 2026-04-29 07:13 | 59.92551 | 150.13617 | 5744 ft | 249 kts | 89° |
| 2026-04-29 07:13 | 59.92549 | 150.17064 | 5422 ft | 249 kts | 88° |
| 2026-04-29 07:14 | 59.92508 | 150.20516 | 5093 ft | 249 kts | 91° |
| 2026-04-29 07:14 | 59.92411 | 150.23960 | 4755 ft | 249 kts | 92° |
| 2026-04-29 07:14 | 59.92306 | 150.27409 | 4449 ft | 247 kts | 91° |
| 2026-04-29 07:14 | 59.92213 | 150.30784 | 4274 ft | 242 kts | 91° |
| 2026-04-29 07:15 | 59.92116 | 150.34104 | 4104 ft | 237 kts | 92° |
| 2026-04-29 07:15 | 59.92025 | 150.37311 | 3862 ft | 227 kts | 92° |
| 2026-04-29 07:15 | 59.91933 | 150.40381 | 3515 ft | 215 kts | 92° |
| 2026-04-29 07:15 | 59.91858 | 150.43278 | 3197 ft | 204 kts | 92° |
| 2026-04-29 07:16 | 59.91784 | 150.45999 | 2939 ft | 188 kts | 91° |
| 2026-04-29 07:16 | 59.91720 | 150.48510 | 2684 ft | 176 kts | 91° |
| 2026-04-29 07:16 | 59.91657 | 150.50851 | 2519 ft | 163 kts | 92° |
| 2026-04-29 07:16 | 59.91600 | 150.53023 | 2310 ft | 151 kts | 91° |
| 2026-04-29 07:17 | 59.91544 | 150.55052 | 1999 ft | 144 kts | 91° |
| 2026-04-29 07:17 | 59.91494 | 150.57019 | 1717 ft | 140 kts | 91° |
| 2026-04-29 07:17 | 59.91444 | 150.58944 | 1506 ft | 139 kts | 92° |
| 2026-04-29 07:17 | 59.91395 | 150.60867 | 1342 ft | 139 kts | 92° |
| 2026-04-29 07:18 | 59.91345 | 150.62782 | 1173 ft | 138 kts | 92° |
| 2026-04-29 07:18 | 59.91295 | 150.64683 | 1006 ft | 137 kts | 93° |
| 2026-04-29 07:18 | 59.91252 | 150.66545 | 823 ft | 137 kts | 93° |
| 2026-04-29 07:18 | 59.91198 | 150.68415 | 662 ft | 134 kts | 94° |
| 2026-04-29 07:19 | 59.91149 | 150.70229 | 583 ft | 123 kts | 93° |
| 2026-04-29 07:19 | 59.91106 | 150.71731 | 583 ft | 88 kts | 93° |
| 2026-04-29 07:19 | 59.91082 | 150.72523 | 584 ft | 34 kts | 93° |